Pagrindinis puslapis
METAR-TAF:

METAR-TAF

Oro uostai :

Decimomannu, Italija

platuma: 39-21N, ilguma: 008-58E, Aukštis: 29 m

Dabartinis oras

Ataskaita buvo paskelbta 47 minutes, ne 03:55 UTC
Vėjas 6 kt iš Vakarų/Šiaurės Vakarų
Temperatūra 11°C
Drėgmė 76%
Slėgis 1026 hPa
Matomumas 10 km arba daugiau
Mažai debesys ne aukštis 1600 ft
Išsisklaidę debesys ne aukštis 2500 ft

METAR: LIED 180355Z 29006KT 9999 FEW016 SCT025 11/07 Q1026 RMK SCT VIS MIN 9999 WIND THR35 24005KT WIND THR17 /////KT BLU

Laikas: 05:42 (04:42 UTC)

Prognozė

Ataskaita buvo paskelbta 5 valandos ir 42 minutes, ne 23:00 UTC
Prognozė galioja nuo 18 metu 00 UTC su 18 metu 09 UTC
Vėjas 3 kt nuo kintamojo kryptimis
Matomumas 10 km arba daugiau
Mažai debesys ne aukštis 2500 ft
Išsisklaidę debesys ne aukštis 4000 ft
Laikinai
nuo 18 metu 00 UTC su 18 metu 06 UTC
Matomumas: 5000 m
Mažai debesys ne aukštis 200 ft
Išsisklaidę debesys ne aukštis 2000 ft
Su prošvaistėmis ne aukštis 4000 ft
rūkana

TAF: LIED 172300Z 1800/1809 VRB03KT 9999 FEW025 SCT040 TEMPO 1800/1806 5000 BR FEW002 SCT020 BKN040

Orai ataskaitas ir orų prognozės (METAR, TAF).

turimą stotys yra geltonos ir raudonos taškus žemėlapyje.

Perkelti pele per norėdami pamatyti stoties vardą.

Tada spustelėkite, norėdami matyti oro stebėjimo ir prognozės.

Norėdami pakeisti žemėlapį: spustelėkite ant žalios mygtukų su juodo kryžiaus žemyn,; žalią mygtuką su brūkšneliu, jei norite nutolinti; arba žalių rodyklių gretimoms žemėlapius.


METAR-TAF: